createdAt,value
2018-12-21T00:00:42.226Z,4.30
2018-12-21T00:03:09.934Z,4.30
2018-12-21T00:05:37.411Z,4.30
2018-12-21T00:08:09.970Z,4.40
2018-12-21T00:10:37.440Z,4.40
2018-12-21T00:13:04.965Z,4.50
2018-12-21T00:15:32.429Z,4.50
2018-12-21T00:18:00.667Z,4.50
2018-12-21T00:20:28.228Z,4.60
2018-12-21T00:22:59.736Z,4.60
2018-12-21T00:25:27.162Z,4.70
2018-12-21T00:27:55.611Z,4.70
2018-12-21T00:30:22.615Z,4.70
2018-12-21T00:32:56.038Z,4.70
2018-12-21T00:35:29.191Z,4.70
2018-12-21T00:38:06.566Z,4.60
2018-12-21T00:40:39.634Z,4.50
2018-12-21T00:46:08.391Z,4.40
2018-12-21T00:48:35.827Z,4.30
2018-12-21T00:51:04.106Z,4.30
2018-12-21T00:53:31.538Z,4.20
2018-12-21T00:55:59.009Z,4.30
2018-12-21T00:58:26.444Z,4.30
2018-12-21T01:00:53.951Z,4.40
2018-12-21T01:03:21.401Z,4.50
2018-12-21T01:05:48.846Z,4.60
2018-12-21T01:08:24.453Z,4.70
2018-12-21T01:10:51.987Z,4.70
2018-12-21T01:13:19.610Z,4.80
2018-12-21T01:15:47.051Z,4.90
2018-12-21T01:18:14.774Z,4.90
2018-12-21T01:20:42.967Z,4.90
2018-12-21T01:23:10.509Z,4.90
2018-12-21T01:25:38.022Z,4.90
2018-12-21T01:28:05.541Z,4.90
2018-12-21T01:30:33.332Z,4.90
2018-12-21T01:33:00.809Z,4.90
2018-12-21T01:35:28.274Z,4.90
2018-12-21T01:37:56.350Z,5.00
2018-12-21T01:40:23.809Z,5.00
2018-12-21T01:42:51.285Z,5.00
2018-12-21T01:45:18.719Z,5.00
2018-12-21T01:47:46.153Z,5.00
2018-12-21T01:50:13.637Z,4.90
2018-12-21T01:52:41.158Z,4.80
2018-12-21T01:55:08.602Z,4.80
2018-12-21T01:57:36.153Z,4.80
2018-12-21T02:00:06.057Z,4.80
2018-12-21T02:02:33.518Z,4.80
2018-12-21T02:05:01.205Z,4.70
2018-12-21T02:07:29.344Z,4.70
2018-12-21T02:09:56.787Z,4.80
2018-12-21T02:12:24.243Z,4.80
2018-12-21T02:14:51.794Z,4.70
2018-12-21T02:17:19.233Z,4.70
2018-12-21T02:19:47.077Z,4.60
2018-12-21T02:22:14.538Z,4.60
2018-12-21T02:24:42.072Z,4.60
2018-12-21T02:27:09.571Z,4.50
2018-12-21T02:29:37.933Z,4.40
2018-12-21T02:32:05.584Z,4.30
2018-12-21T02:34:33.043Z,4.30
2018-12-21T02:37:00.546Z,4.30
2018-12-21T02:39:31.135Z,4.30
2018-12-21T02:41:58.738Z,4.40
2018-12-21T02:44:27.213Z,4.40
2018-12-21T02:46:54.778Z,4.30
2018-12-21T02:49:22.267Z,4.40
2018-12-21T02:51:49.703Z,4.30
2018-12-21T02:54:17.143Z,4.40
2018-12-21T02:56:44.611Z,4.50
2018-12-21T02:59:12.172Z,4.50
2018-12-21T03:01:40.651Z,4.50
2018-12-21T03:04:08.087Z,4.40
2018-12-21T03:06:35.865Z,4.40
2018-12-21T03:09:07.198Z,4.30
2018-12-21T03:11:34.776Z,4.30
2018-12-21T03:14:02.230Z,4.30
2018-12-21T03:16:30.461Z,4.40
2018-12-21T03:18:57.938Z,4.40
2018-12-21T03:21:25.406Z,4.30
2018-12-21T03:23:53.065Z,4.40
2018-12-21T03:26:24.610Z,4.40
2018-12-21T03:28:52.085Z,4.40
2018-12-21T03:31:19.828Z,4.50
2018-12-21T03:33:47.629Z,4.40
2018-12-21T03:36:15.063Z,4.50
2018-12-21T03:38:42.741Z,4.50
2018-12-21T03:41:10.274Z,4.50
2018-12-21T03:43:38.682Z,4.50
2018-12-21T03:46:06.296Z,4.60
2018-12-21T03:48:33.786Z,4.70
2018-12-21T03:51:01.224Z,4.60
2018-12-21T03:53:28.802Z,4.70
2018-12-21T03:55:56.273Z,4.70
2018-12-21T03:58:27.012Z,4.70
2018-12-21T04:00:54.474Z,4.80
2018-12-21T04:03:22.850Z,4.80
2018-12-21T04:05:50.505Z,4.80
2018-12-21T04:08:17.949Z,4.80
2018-12-21T04:10:45.418Z,4.80
2018-12-21T04:13:12.868Z,4.80
2018-12-21T04:15:40.479Z,4.90
2018-12-21T04:18:08.012Z,4.90
2018-12-21T04:20:35.601Z,4.90
2018-12-21T04:23:03.045Z,4.90
2018-12-21T04:25:31.286Z,4.80
2018-12-21T04:27:58.759Z,4.80
2018-12-21T04:30:26.257Z,4.80
2018-12-21T04:32:53.725Z,4.90
2018-12-21T04:35:21.435Z,4.90
2018-12-21T04:37:48.919Z,4.90
2018-12-21T04:40:16.438Z,4.90
2018-12-21T04:42:44.806Z,4.90
2018-12-21T04:45:12.356Z,4.90
2018-12-21T04:47:39.849Z,4.90
2018-12-21T04:50:07.686Z,5.00
2018-12-21T04:52:42.926Z,5.00
2018-12-21T04:55:04.812Z,5.00
2018-12-21T04:57:32.241Z,4.90
2018-12-21T04:59:59.894Z,4.80
2018-12-21T05:02:27.534Z,4.80
2018-12-21T05:04:55.117Z,4.70
2018-12-21T05:07:23.117Z,4.70
2018-12-21T05:09:50.846Z,4.70
2018-12-21T05:12:18.331Z,4.70
2018-12-21T05:14:45.797Z,4.70
2018-12-21T05:17:13.294Z,4.70
2018-12-21T05:19:41.088Z,4.60
2018-12-21T05:22:08.568Z,4.60
2018-12-21T05:24:36.310Z,4.60
2018-12-21T05:27:07.147Z,4.70
2018-12-21T05:29:34.600Z,4.70
2018-12-21T05:32:02.038Z,4.70
2018-12-21T05:34:29.874Z,4.70
2018-12-21T05:36:57.324Z,4.70
2018-12-21T05:39:24.825Z,4.70
2018-12-21T05:41:52.300Z,4.70
2018-12-21T05:44:19.776Z,4.70
2018-12-21T05:46:47.306Z,4.70
2018-12-21T05:49:15.569Z,4.80
2018-12-21T05:51:43.030Z,4.80
2018-12-21T05:54:10.816Z,4.80
2018-12-21T05:56:38.276Z,4.80
2018-12-21T05:59:05.773Z,4.80
2018-12-21T06:01:33.265Z,4.90
2018-12-21T06:04:00.740Z,4.90
2018-12-21T06:06:28.235Z,4.90
2018-12-21T06:08:55.669Z,4.90
2018-12-21T06:11:23.716Z,5.00
2018-12-21T06:13:51.246Z,4.90
2018-12-21T06:16:18.698Z,5.00
2018-12-21T06:18:46.263Z,5.00
2018-12-21T06:21:13.721Z,5.10
2018-12-21T06:23:41.201Z,5.10
2018-12-21T06:26:08.653Z,5.20
2018-12-21T06:28:36.128Z,5.20
2018-12-21T06:31:03.771Z,5.20
2018-12-21T06:33:31.861Z,5.30
2018-12-21T06:35:59.306Z,5.30
2018-12-21T06:38:26.789Z,5.30
2018-12-21T06:40:54.232Z,5.30
2018-12-21T06:43:24.858Z,5.40
2018-12-21T06:45:52.354Z,5.40
2018-12-21T06:48:19.892Z,5.50
2018-12-21T06:50:47.321Z,5.50
2018-12-21T06:53:18.059Z,5.50
2018-12-21T06:55:46.072Z,5.60
2018-12-21T06:58:13.521Z,5.70
2018-12-21T07:00:41.006Z,5.70
2018-12-21T07:03:16.779Z,5.70
2018-12-21T07:05:37.907Z,5.70
2018-12-21T07:08:05.660Z,5.70
2018-12-21T07:10:33.272Z,5.70
2018-12-21T07:13:00.729Z,5.70
2018-12-21T07:15:28.171Z,5.70
2018-12-21T07:17:55.663Z,5.80
2018-12-21T07:20:23.137Z,5.80
2018-12-21T07:22:50.646Z,5.80
2018-12-21T07:25:18.138Z,5.70
2018-12-21T07:27:45.602Z,5.70
2018-12-21T07:30:14.036Z,5.70
2018-12-21T07:32:41.516Z,5.70
2018-12-21T07:35:09.146Z,5.60
2018-12-21T07:37:36.578Z,5.60
2018-12-21T07:40:07.479Z,5.70
2018-12-21T07:42:34.929Z,5.70
2018-12-21T07:45:04.400Z,5.70
2018-12-21T07:47:32.241Z,5.90
2018-12-21T07:50:00.174Z,6.60
2018-12-21T07:52:27.752Z,6.80
2018-12-21T07:54:55.239Z,7.00
2018-12-21T07:57:22.906Z,7.10
2018-12-21T07:59:50.362Z,6.90
2018-12-21T08:02:17.842Z,6.80
2018-12-21T08:04:45.328Z,6.80
2018-12-21T08:07:12.816Z,6.70
2018-12-21T08:09:40.323Z,6.60
2018-12-21T08:12:07.753Z,6.50
2018-12-21T08:14:35.217Z,6.50
2018-12-21T08:17:02.671Z,6.50
2018-12-21T08:19:32.146Z,6.40
2018-12-21T08:21:59.963Z,6.40
2018-12-21T08:24:27.402Z,6.40
2018-12-21T08:26:55.245Z,6.40
2018-12-21T08:29:22.726Z,6.40
2018-12-21T08:31:50.390Z,6.30
2018-12-21T08:34:17.852Z,6.30
2018-12-21T08:36:45.302Z,6.30
2018-12-21T08:39:13.478Z,6.30
2018-12-21T08:41:41.111Z,6.30
2018-12-21T08:44:08.562Z,6.20
2018-12-21T08:46:36.034Z,6.20
2018-12-21T08:49:03.505Z,6.10
2018-12-21T08:51:30.957Z,6.10
2018-12-21T08:53:58.417Z,6.00
2018-12-21T08:56:25.901Z,6.00
2018-12-21T08:58:53.551Z,6.00
2018-12-21T09:01:21.021Z,6.00
2018-12-21T09:03:49.004Z,6.00
2018-12-21T09:06:18.544Z,6.00
2018-12-21T09:08:47.052Z,6.00
2018-12-21T09:11:14.612Z,6.00
2018-12-21T09:13:42.056Z,6.00
2018-12-21T09:16:13.219Z,6.00
2018-12-21T09:18:40.669Z,6.00
2018-12-21T09:21:08.433Z,6.00
2018-12-21T09:23:36.510Z,6.00
2018-12-21T09:26:03.990Z,6.10
2018-12-21T09:28:31.456Z,6.10
2018-12-21T09:30:58.934Z,6.10
2018-12-21T09:33:29.817Z,6.20
2018-12-21T09:35:57.378Z,6.20
2018-12-21T09:38:24.834Z,6.20
2018-12-21T09:40:52.366Z,6.30
2018-12-21T09:43:20.765Z,6.30
2018-12-21T09:45:48.238Z,6.30
2018-12-21T09:48:15.664Z,6.40
2018-12-21T09:50:43.453Z,6.40
2018-12-21T09:53:10.907Z,6.40
2018-12-21T09:55:38.454Z,6.50
2018-12-21T09:58:08.893Z,6.40
2018-12-21T10:00:36.324Z,6.40
2018-12-21T10:03:07.510Z,6.40
2018-12-21T10:05:35.089Z,6.40
2018-12-21T10:08:02.566Z,6.40
2018-12-21T10:10:30.133Z,6.40
2018-12-21T10:12:57.604Z,6.40
2018-12-21T10:15:25.087Z,6.40
2018-12-21T10:17:55.689Z,6.40
2018-12-21T10:20:23.139Z,6.40
2018-12-21T10:22:50.604Z,6.40
2018-12-21T10:25:19.018Z,6.40
2018-12-21T10:27:46.587Z,6.40
2018-12-21T10:30:14.234Z,6.30
2018-12-21T10:32:41.730Z,6.30
2018-12-21T10:35:09.254Z,6.30
2018-12-21T10:37:36.811Z,6.30
2018-12-21T10:40:06.131Z,6.20
2018-12-21T10:42:33.674Z,6.20
2018-12-21T10:45:01.134Z,6.20
2018-12-21T10:47:31.817Z,6.20
2018-12-21T10:49:59.316Z,6.20
2018-12-21T10:52:27.130Z,6.20
2018-12-21T10:54:54.607Z,6.30
2018-12-21T10:57:22.094Z,6.30
2018-12-21T10:59:49.599Z,6.30
2018-12-21T11:02:17.025Z,6.30
2018-12-21T11:04:44.470Z,6.40
2018-12-21T11:07:11.974Z,6.40
2018-12-21T11:09:39.402Z,6.40
2018-12-21T11:12:06.888Z,6.40
2018-12-21T11:14:35.364Z,6.40
2018-12-21T11:17:02.936Z,6.40
2018-12-21T11:19:31.157Z,6.40
2018-12-21T11:21:58.658Z,6.40
2018-12-21T11:24:26.180Z,6.30
2018-12-21T11:26:54.886Z,6.30
2018-12-21T11:29:22.422Z,6.40
2018-12-21T11:31:49.883Z,6.40
2018-12-21T11:34:20.523Z,6.40
2018-12-21T11:36:47.964Z,6.40
2018-12-21T11:39:15.841Z,6.40
2018-12-21T11:41:44.005Z,6.40
2018-12-21T11:44:11.470Z,6.50
2018-12-21T11:46:38.963Z,6.50
2018-12-21T11:49:09.556Z,6.50
2018-12-21T11:51:37.125Z,6.50
2018-12-21T11:54:04.642Z,6.50
2018-12-21T11:56:32.101Z,6.60
2018-12-21T11:58:59.586Z,6.60
2018-12-21T12:01:27.123Z,6.60
2018-12-21T12:03:57.677Z,6.60
2018-12-21T12:06:25.105Z,6.60
2018-12-21T12:08:52.646Z,6.60
2018-12-21T12:11:20.118Z,6.70
2018-12-21T12:13:47.698Z,6.70
2018-12-21T12:16:15.737Z,6.80
2018-12-21T12:18:43.188Z,6.80
2018-12-21T12:21:10.689Z,6.80
2018-12-21T12:23:38.150Z,6.90
2018-12-21T12:26:05.830Z,6.90
2018-12-21T12:28:33.374Z,7.00
2018-12-21T12:31:01.339Z,7.00
2018-12-21T12:33:28.795Z,7.00
2018-12-21T12:35:56.262Z,7.00
2018-12-21T12:38:23.751Z,7.00
2018-12-21T12:40:51.176Z,7.00
2018-12-21T12:43:18.679Z,7.10
2018-12-21T12:45:46.202Z,7.00
2018-12-21T12:48:13.657Z,7.10
2018-12-21T12:50:41.120Z,7.00
2018-12-21T12:53:09.478Z,7.00
2018-12-21T12:55:36.948Z,7.00
2018-12-21T12:58:04.435Z,7.00
2018-12-21T13:00:31.905Z,7.10
2018-12-21T13:02:59.410Z,7.10
2018-12-21T13:05:26.902Z,7.10
2018-12-21T13:07:54.352Z,7.20
2018-12-21T13:10:21.838Z,7.20
2018-12-21T13:12:49.278Z,7.20
2018-12-21T13:15:16.751Z,7.30
2018-12-21T13:17:44.312Z,7.30
2018-12-21T13:20:12.430Z,7.40
2018-12-21T13:22:39.933Z,7.40
2018-12-21T13:25:11.525Z,7.50
2018-12-21T13:27:37.004Z,7.60
2018-12-21T13:30:07.139Z,7.60
2018-12-21T13:32:34.670Z,7.70
2018-12-21T13:35:02.213Z,7.70
2018-12-21T13:37:29.966Z,7.70
2018-12-21T13:39:57.418Z,7.70
2018-12-21T13:42:26.884Z,7.80
2018-12-21T13:44:54.608Z,7.80
2018-12-21T13:47:22.466Z,7.80
2018-12-21T13:49:50.194Z,7.80
2018-12-21T13:52:17.656Z,7.90
2018-12-21T13:54:45.209Z,7.90
2018-12-21T13:57:12.900Z,7.90
2018-12-21T13:59:40.400Z,7.80
2018-12-21T14:02:07.921Z,7.90
2018-12-21T14:04:35.387Z,7.90
2018-12-21T14:07:06.879Z,7.90
2018-12-21T14:09:34.802Z,7.90
2018-12-21T14:12:02.277Z,7.90
2018-12-21T14:14:29.726Z,7.90
2018-12-21T14:16:57.319Z,7.90
2018-12-21T14:19:24.781Z,7.90
2018-12-21T14:21:52.330Z,7.90
2018-12-21T14:24:19.871Z,7.90
2018-12-21T14:26:47.375Z,7.90
2018-12-21T14:29:14.904Z,7.80
2018-12-21T14:31:43.146Z,7.80
2018-12-21T14:34:11.508Z,7.90
2018-12-21T14:36:39.258Z,7.90
2018-12-21T14:39:07.685Z,7.90
2018-12-21T14:41:35.179Z,8.00
2018-12-21T14:44:02.753Z,8.00
2018-12-21T14:46:30.213Z,8.10
2018-12-21T14:48:57.669Z,8.10
2018-12-21T14:51:29.123Z,8.10
2018-12-21T14:53:57.317Z,8.20
2018-12-21T14:56:24.780Z,8.20
2018-12-21T14:58:52.413Z,8.30
2018-12-21T15:01:20.137Z,8.30
2018-12-21T15:03:47.610Z,8.40
2018-12-21T15:06:15.215Z,8.40
2018-12-21T15:08:43.301Z,8.40
2018-12-21T15:11:11.001Z,8.50
2018-12-21T15:13:38.482Z,8.50
2018-12-21T15:16:06.066Z,8.60
2018-12-21T15:18:33.589Z,8.50
2018-12-21T15:21:01.048Z,8.60
2018-12-21T15:23:28.533Z,8.60
2018-12-21T15:25:55.981Z,8.60
2018-12-21T15:28:23.469Z,8.60
2018-12-21T15:30:50.906Z,8.70
2018-12-21T15:33:19.163Z,8.70
2018-12-21T15:35:46.637Z,8.70
2018-12-21T15:38:14.074Z,8.70
2018-12-21T15:40:41.763Z,8.70
2018-12-21T15:43:09.204Z,8.70
2018-12-21T15:45:36.686Z,8.70
2018-12-21T15:48:04.158Z,8.80
2018-12-21T15:50:31.596Z,8.80
2018-12-21T15:53:02.417Z,8.80
2018-12-21T15:55:30.479Z,8.90
2018-12-21T15:57:57.988Z,8.90
2018-12-21T16:00:25.587Z,8.90
2018-12-21T16:02:53.366Z,9.00
2018-12-21T16:05:20.796Z,9.00
2018-12-21T16:07:51.352Z,9.00
2018-12-21T16:10:18.880Z,9.00
2018-12-21T16:12:47.405Z,9.00
2018-12-21T16:15:14.895Z,9.00
2018-12-21T16:17:42.376Z,9.00
2018-12-21T16:20:11.118Z,9.10
2018-12-21T16:22:42.474Z,9.10
2018-12-21T16:25:08.268Z,9.10
2018-12-21T16:27:36.525Z,9.10
2018-12-21T16:30:06.995Z,9.10
2018-12-21T16:32:35.229Z,9.10
2018-12-21T16:35:02.744Z,9.20
2018-12-21T16:37:30.478Z,9.10
2018-12-21T16:39:57.911Z,9.20
2018-12-21T16:42:26.299Z,9.20
2018-12-21T16:44:53.821Z,9.20
2018-12-21T16:47:21.253Z,9.20
2018-12-21T16:49:48.723Z,9.20
2018-12-21T16:52:16.217Z,9.20
2018-12-21T16:54:47.683Z,9.20
2018-12-21T16:57:15.756Z,9.20
2018-12-21T16:59:43.219Z,9.20
2018-12-21T17:02:10.754Z,9.20
2018-12-21T17:04:38.259Z,9.30
2018-12-21T17:07:05.832Z,9.30
2018-12-21T17:09:33.359Z,9.40
2018-12-21T17:12:00.830Z,9.40
2018-12-21T17:14:28.836Z,9.40
2018-12-21T17:16:56.311Z,9.50
2018-12-21T17:19:24.290Z,9.50
2018-12-21T17:21:53.212Z,9.50
2018-12-21T17:24:28.405Z,9.50
2018-12-21T17:26:56.023Z,9.50
2018-12-21T17:29:24.309Z,9.50
2018-12-21T17:31:51.806Z,9.50
2018-12-21T17:34:19.387Z,9.50
2018-12-21T17:36:46.821Z,9.50
2018-12-21T17:39:18.281Z,9.60
2018-12-21T17:41:45.743Z,9.60
2018-12-21T17:44:13.901Z,9.60
2018-12-21T17:46:41.335Z,9.60
2018-12-21T17:49:08.899Z,9.60
2018-12-21T17:51:38.435Z,9.60
2018-12-21T17:54:05.816Z,9.70
2018-12-21T17:56:33.393Z,9.70
2018-12-21T17:59:00.842Z,9.70
2018-12-21T18:01:28.346Z,9.80
2018-12-21T18:03:55.969Z,9.80
2018-12-21T18:06:23.431Z,9.90
2018-12-21T18:08:50.950Z,10.00
2018-12-21T18:11:18.484Z,10.00
2018-12-21T18:13:46.785Z,10.00
2018-12-21T18:16:14.241Z,10.00
2018-12-21T18:18:41.694Z,10.00
2018-12-21T18:21:09.462Z,10.00
2018-12-21T18:23:36.977Z,10.00
2018-12-21T18:26:04.586Z,10.00
2018-12-21T18:28:32.044Z,10.10
2018-12-21T18:31:03.408Z,10.10
2018-12-21T18:33:30.854Z,10.10
2018-12-21T18:35:58.335Z,10.10
2018-12-21T18:38:25.875Z,10.10
2018-12-21T18:40:53.799Z,10.20
2018-12-21T18:43:21.245Z,10.20
2018-12-21T18:45:48.708Z,10.20
2018-12-21T18:48:16.203Z,10.20
2018-12-21T18:50:43.866Z,10.20
2018-12-21T18:53:11.744Z,10.20
2018-12-21T18:55:39.500Z,10.30
2018-12-21T18:58:06.995Z,10.30
2018-12-21T19:00:34.479Z,10.30
2018-12-21T19:03:01.957Z,10.30
2018-12-21T19:05:29.438Z,10.30
2018-12-21T19:07:56.904Z,10.40
2018-12-21T19:10:24.355Z,10.50
2018-12-21T19:12:53.291Z,10.50
2018-12-21T19:15:22.567Z,10.60
2018-12-21T19:17:50.295Z,10.60
2018-12-21T19:20:17.735Z,10.60
2018-12-21T19:22:45.291Z,10.50
2018-12-21T19:25:12.885Z,10.60
2018-12-21T19:27:40.401Z,10.60
2018-12-21T19:30:08.555Z,10.60
2018-12-21T19:32:36.608Z,10.70
2018-12-21T19:35:05.934Z,10.70
2018-12-21T19:37:33.444Z,10.70
2018-12-21T19:40:01.199Z,10.80
2018-12-21T19:42:28.730Z,10.80
2018-12-21T19:44:56.226Z,10.70
2018-12-21T19:47:23.670Z,10.80
2018-12-21T19:49:51.164Z,10.70
2018-12-21T19:52:19.177Z,10.70
2018-12-21T19:54:47.543Z,10.70
2018-12-21T19:57:15.169Z,10.70
2018-12-21T19:59:42.649Z,10.70
2018-12-21T20:02:10.148Z,10.70
2018-12-21T20:04:37.770Z,10.70
2018-12-21T20:07:05.268Z,10.80
2018-12-21T20:09:32.778Z,10.80
2018-12-21T20:12:03.968Z,10.80
2018-12-21T20:14:31.533Z,11.00
2018-12-21T20:16:59.024Z,11.00
2018-12-21T20:19:26.614Z,11.00
2018-12-21T20:21:54.229Z,11.00
2018-12-21T20:24:23.215Z,11.00
2018-12-21T20:26:50.836Z,11.00
2018-12-21T20:29:22.621Z,10.90
2018-12-21T20:31:50.236Z,10.90
2018-12-21T20:34:18.691Z,11.00
2018-12-21T20:36:46.188Z,11.00
2018-12-21T20:39:13.699Z,11.00
2018-12-21T20:41:41.147Z,10.90
2018-12-21T20:44:08.662Z,10.90
2018-12-21T20:46:36.260Z,11.00
2018-12-21T20:49:03.848Z,10.90
2018-12-21T20:51:32.615Z,11.00
2018-12-21T20:54:00.057Z,11.00
2018-12-21T20:56:27.499Z,11.00
2018-12-21T20:58:57.962Z,11.00
2018-12-21T21:01:25.426Z,10.90
2018-12-21T21:03:52.874Z,10.90
2018-12-21T21:06:20.383Z,10.90
2018-12-21T21:08:47.831Z,10.80
2018-12-21T21:11:24.042Z,10.90
2018-12-21T21:13:47.817Z,10.80
2018-12-21T21:16:15.302Z,10.80
2018-12-21T21:18:42.800Z,10.80
2018-12-21T21:21:10.289Z,10.90
2018-12-21T21:23:37.751Z,10.90
2018-12-21T21:26:05.937Z,10.90
2018-12-21T21:28:36.678Z,10.80
2018-12-21T21:31:04.138Z,10.80
2018-12-21T21:33:31.607Z,10.80
2018-12-21T21:35:59.091Z,10.70
2018-12-21T21:38:26.558Z,10.50
2018-12-21T21:40:54.151Z,10.40
2018-12-21T21:43:25.610Z,10.30
2018-12-21T21:45:53.059Z,10.30
2018-12-21T21:48:20.538Z,10.30
2018-12-21T21:50:48.007Z,10.20
2018-12-21T21:53:15.479Z,10.10
2018-12-21T21:55:42.939Z,10.10
2018-12-21T21:58:10.434Z,10.00
2018-12-21T22:00:38.048Z,10.00
2018-12-21T22:03:05.556Z,10.00
2018-12-21T22:05:33.523Z,9.90
2018-12-21T22:08:01.005Z,9.80
2018-12-21T22:10:28.936Z,9.70
2018-12-21T22:12:56.405Z,9.70
2018-12-21T22:15:23.970Z,9.80
2018-12-21T22:17:51.415Z,9.80
2018-12-21T22:20:18.958Z,9.80
2018-12-21T22:22:47.439Z,9.70
2018-12-21T22:25:14.970Z,9.60
2018-12-21T22:27:47.899Z,9.60
2018-12-21T22:30:12.319Z,9.60
2018-12-21T22:32:39.842Z,9.60
2018-12-21T22:35:07.370Z,9.70
2018-12-21T22:37:34.869Z,9.70
2018-12-21T22:40:02.328Z,9.60
2018-12-21T22:42:29.888Z,9.50
2018-12-21T22:44:57.351Z,9.40
2018-12-21T22:47:25.014Z,9.30
2018-12-21T22:49:52.554Z,9.20
2018-12-21T22:52:20.739Z,9.20
2018-12-21T22:54:48.502Z,9.10
2018-12-21T22:57:15.985Z,9.00
2018-12-21T22:59:43.720Z,9.10
2018-12-21T23:02:11.198Z,9.00
2018-12-21T23:04:39.761Z,9.00
2018-12-21T23:07:07.211Z,9.10
2018-12-21T23:09:34.666Z,9.50
2018-12-21T23:12:02.179Z,9.70
2018-12-21T23:14:29.654Z,9.80
2018-12-21T23:16:57.146Z,9.90
2018-12-21T23:19:24.662Z,10.00
2018-12-21T23:21:52.108Z,10.10
2018-12-21T23:24:19.562Z,10.10
2018-12-21T23:26:48.122Z,10.10
2018-12-21T23:29:15.627Z,10.20
2018-12-21T23:31:43.059Z,10.20
2018-12-21T23:34:10.508Z,10.20
2018-12-21T23:36:38.042Z,10.30
2018-12-21T23:39:06.494Z,10.40
2018-12-21T23:41:34.175Z,10.50
2018-12-21T23:44:01.634Z,10.60
2018-12-21T23:46:29.125Z,10.60
2018-12-21T23:48:56.650Z,10.50
2018-12-21T23:51:24.082Z,10.50
2018-12-21T23:53:51.554Z,10.40
2018-12-21T23:56:19.045Z,10.40
2018-12-21T23:58:46.918Z,10.40
